Time;durP1;ratioP1;P1;durP2;ratioP2;P2;SDS_P1;SDS_P2;PMS_P1;PMS_P2;Temp;Humidity;BMP_temperature;BMP_pressure;BME280_temperature;BME280_humidity;BME280_pressure;Samples;Min_cycle;Max_cycle;Signal;HPM_P1;HPM_P2
2023/07/30 00:01:13;;;;;;;;;;;;;;;;;;4980856;28;19925;-65
2023/07/30 00:03:38;;;;;;;;;;;;;;;;;;5000072;28;19921;-65
2023/07/30 00:06:04;;;;;;;;;;;;;;;;;;5002157;28;19996;-65
2023/07/30 00:08:30;;;;;;;;;;;;;;;;;;5000483;28;20004;-65
2023/07/30 00:10:56;;;;;;;;;;;;;;;;;;5000752;28;19932;-65
2023/07/30 00:13:22;;;;;;;;;;;;;;;;;;5001441;28;19929;-65
2023/07/30 00:15:48;;;;;;;;;;;;;;;;;;5000842;28;19929;-65
2023/07/30 00:18:14;;;;;;;;;;;;;;;;;;4995893;28;19999;-65
2023/07/30 00:20:40;;;;;;;;;;;;;;;;;;4987076;28;19948;-65
2023/07/30 00:23:06;;;;;;;;;;;;;;;;;;4985758;28;20355;-65
2023/07/30 00:25:32;;;;;;;;;;;;;;;;;;5005809;28;19953;-65
2023/07/30 00:27:57;;;;;;;;;;;;;;;;;;5001545;28;19926;-65
2023/07/30 00:30:23;;;;;;;;;;;;;;;;;;5002010;28;20390;-65
2023/07/30 00:32:49;;;;;;;;;;;;;;;;;;5012035;28;19921;-65
2023/07/30 00:35:15;;;;;;;;;;;;;;;;;;4986806;28;19969;-65
2023/07/30 00:37:41;;;;;;;;;;;;;;;;;;5009367;28;19930;-65
2023/07/30 00:40:07;;;;;;;;;;;;;;;;;;5013307;28;20268;-65
2023/07/30 00:42:33;;;;;;;;;;;;;;;;;;5009695;28;19928;-65
2023/07/30 00:44:59;;;;;;;;;;;;;;;;;;5004709;28;20015;-65
2023/07/30 00:47:25;;;;;;;;;;;;;;;;;;5007917;28;19960;-65
2023/07/30 00:49:50;;;;;;;;;;;;;;;;;;5003745;28;20457;-65
2023/07/30 00:52:16;;;;;;;;;;;;;;;;;;4995380;28;19961;-65
2023/07/30 00:54:42;;;;;;;;;;;;;;;;;;5001502;28;19949;-65
2023/07/30 00:57:08;;;;;;;;;;;;;;;;;;5008531;28;20266;-65
2023/07/30 00:59:34;;;;;;;;;;;;;;;;;;5007710;28;19930;-65
2023/07/30 01:02:00;;;;;;;;;;;;;;;;;;5000795;28;19943;-65
2023/07/30 01:04:26;;;;;;;;;;;;;;;;;;5005005;28;20307;-66
2023/07/30 01:06:52;;;;;;;;;;;;;;;;;;5001234;28;19935;-66
2023/07/30 01:09:18;;;;;;;;;;;;;;;;;;4996085;28;19932;-66
2023/07/30 01:11:44;;;;;;;;;;;;;;;;;;4993638;28;19930;-66
2023/07/30 01:14:09;;;;;;;;;;;;;;;;;;4995125;28;19936;-65
2023/07/30 01:16:35;;;;;;;;;;;;;;;;;;4975174;28;19969;-66
2023/07/30 01:19:04;;;;;;;;;;;;;;;;;;4995120;28;20434;-66
2023/07/30 01:21:30;;;;;;;;;;;;;;;;;;4994957;28;19929;-65
2023/07/30 01:23:56;;;;;;;;;;;;;;;;;;4994956;28;20291;-65
2023/07/30 01:26:21;;;;;;;;;;;;;;;;;;4995130;28;19930;-65
2023/07/30 01:28:47;;;;;;;;;;;;;;;;;;4994864;28;19945;-65
2023/07/30 01:31:13;;;;;;;;;;;;;;;;;;4993677;28;19933;-65
2023/07/30 01:33:39;;;;;;;;;;;;;;;;;;4981880;28;19929;-65
2023/07/30 01:36:05;;;;;;;;;;;;;;;;;;4992439;28;19987;-65
2023/07/30 01:38:31;;;;;;;;;;;;;;;;;;4984307;28;19926;-65
2023/07/30 01:40:57;;;;;;;;;;;;;;;;;;4994924;28;19929;-65
2023/07/30 01:43:23;;;;;;;;;;;;;;;;;;4996962;28;19922;-65
2023/07/30 01:45:48;;;;;;;;;;;;;;;;;;4997473;28;20348;-65
2023/07/30 01:48:14;;;;;;;;;;;;;;;;;;5009448;28;20035;-65
2023/07/30 01:50:40;;;;;;;;;;;;;;;;;;4998693;28;19932;-65
2023/07/30 01:53:06;;;;;;;;;;;;;;;;;;4993552;28;19979;-65
2023/07/30 01:55:32;;;;;;;;;;;;;;;;;;4999269;28;19976;-65
2023/07/30 01:57:58;;;;;;;;;;;;;;;;;;4991616;28;19922;-65
2023/07/30 02:00:24;;;;;;;;;;;;;;;;;;4962053;28;20334;-65
2023/07/30 02:02:50;;;;;;;;;;;;;;;;;;4998732;28;19932;-67
2023/07/30 02:05:16;;;;;;;;;;;;;;;;;;4982173;28;19922;-66
2023/07/30 02:07:42;;;;;;;;;;;;;;;;;;5000695;28;19929;-66
2023/07/30 02:10:07;;;;;;;;;;;;;;;;;;5007686;28;19952;-65
2023/07/30 02:12:33;;;;;;;;;;;;;;;;;;4991769;28;20137;-65
2023/07/30 02:14:59;;;;;;;;;;;;;;;;;;4992152;28;19922;-66
2023/07/30 02:17:25;;;;;;;;;;;;;;;;;;4994092;28;19969;-68
2023/07/30 02:19:51;;;;;;;;;;;;;;;;;;4992211;28;20455;-66
2023/07/30 02:22:17;;;;;;;;;;;;;;;;;;4992099;28;19980;-66
2023/07/30 02:24:43;;;;;;;;;;;;;;;;;;5002125;28;19921;-65
2023/07/30 02:27:09;;;;;;;;;;;;;;;;;;5003834;28;19976;-65
2023/07/30 02:29:35;;;;;;;;;;;;;;;;;;4992078;28;19928;-65
2023/07/30 02:32:01;;;;;;;;;;;;;;;;;;5005943;28;19965;-65
2023/07/30 02:34:26;;;;;;;;;;;;;;;;;;5002352;28;20027;-65
2023/07/30 02:36:52;;;;;;;;;;;;;;;;;;5004049;28;19971;-65
2023/07/30 02:39:18;;;;;;;;;;;;;;;;;;5007136;28;19925;-65
2023/07/30 02:41:44;;;;;;;;;;;;;;;;;;5007963;28;19926;-65
2023/07/30 02:44:10;;;;;;;;;;;;;;;;;;5006922;28;19929;-65
2023/07/30 02:46:36;;;;;;;;;;;;;;;;;;4977089;28;20016;-65
2023/07/30 02:49:02;;;;;;;;;;;;;;;;;;4992808;28;19971;-65
2023/07/30 02:51:28;;;;;;;;;;;;;;;;;;4990568;28;20407;-65
2023/07/30 02:53:53;;;;;;;;;;;;;;;;;;4991670;28;19921;-65
2023/07/30 02:56:19;;;;;;;;;;;;;;;;;;4993134;28;20020;-66
2023/07/30 02:58:45;;;;;;;;;;;;;;;;;;4993159;28;19922;-67
2023/07/30 03:01:11;;;;;;;;;;;;;;;;;;4992724;28;20265;-66
2023/07/30 03:03:37;;;;;;;;;;;;;;;;;;4992873;28;19922;-66
2023/07/30 03:06:03;;;;;;;;;;;;;;;;;;4992577;28;19932;-65
2023/07/30 03:08:29;;;;;;;;;;;;;;;;;;4987321;28;19977;-65
2023/07/30 03:10:55;;;;;;;;;;;;;;;;;;4991502;28;19969;-65
2023/07/30 03:13:21;;;;;;;;;;;;;;;;;;5004987;28;19928;-65
2023/07/30 03:15:47;;;;;;;;;;;;;;;;;;4997355;28;19932;-65
2023/07/30 03:18:13;;;;;;;;;;;;;;;;;;4996191;28;19925;-65
2023/07/30 03:20:39;;;;;;;;;;;;;;;;;;5002825;28;20311;-65
2023/07/30 03:23:05;;;;;;;;;;;;;;;;;;4993479;28;19976;-65
2023/07/30 03:25:30;;;;;;;;;;;;;;;;;;4995471;28;20365;-65
2023/07/30 03:27:56;;;;;;;;;;;;;;;;;;5007746;28;19929;-65
2023/07/30 03:30:22;;;;;;;;;;;;;;;;;;4993913;28;19930;-65
2023/07/30 03:32:48;;;;;;;;;;;;;;;;;;5007273;28;20380;-65
2023/07/30 03:35:14;;;;;;;;;;;;;;;;;;4982835;28;19922;-65
2023/07/30 03:37:40;;;;;;;;;;;;;;;;;;5000120;28;20881;-65
2023/07/30 03:40:06;;;;;;;;;;;;;;;;;;4981531;28;19957;-65
2023/07/30 03:42:32;;;;;;;;;;;;;;;;;;4992404;28;19969;-65
2023/07/30 03:44:58;;;;;;;;;;;;;;;;;;4997306;28;21911;-65
2023/07/30 03:47:23;;;;;;;;;;;;;;;;;;5003297;28;19934;-65
2023/07/30 03:49:49;;;;;;;;;;;;;;;;;;4997075;28;20017;-65
2023/07/30 03:52:17;;;;;;;;;;;;;;;;;;4995758;28;19928;-65
2023/07/30 03:54:43;;;;;;;;;;;;;;;;;;4994054;28;19930;-65
2023/07/30 03:57:09;;;;;;;;;;;;;;;;;;5005060;28;19944;-65
2023/07/30 03:59:35;;;;;;;;;;;;;;;;;;4991228;28;20368;-65
2023/07/30 04:02:00;;;;;;;;;;;;;;;;;;4995755;28;19949;-65
2023/07/30 04:04:26;;;;;;;;;;;;;;;;;;5005693;28;20311;-65
2023/07/30 04:06:52;;;;;;;;;;;;;;;;;;4994126;28;20283;-65
2023/07/30 04:09:18;;;;;;;;;;;;;;;;;;4993512;28;19966;-65
2023/07/30 04:11:44;;;;;;;;;;;;;;;;;;4977644;28;19922;-65
2023/07/30 04:14:10;;;;;;;;;;;;;;;;;;5005957;28;20406;-65
2023/07/30 04:16:36;;;;;;;;;;;;;;;;;;4996873;28;19922;-65
2023/07/30 04:19:02;;;;;;;;;;;;;;;;;;4990451;28;20410;-65
2023/07/30 04:21:28;;;;;;;;;;;;;;;;;;4997272;28;19922;-65
2023/07/30 04:23:53;;;;;;;;;;;;;;;;;;5003033;28;19926;-65
2023/07/30 04:26:19;;;;;;;;;;;;;;;;;;4979482;28;20568;-65
2023/07/30 04:28:45;;;;;;;;;;;;;;;;;;4978849;28;19928;-65
2023/07/30 04:31:11;;;;;;;;;;;;;;;;;;5002605;28;19959;-65
2023/07/30 04:33:37;;;;;;;;;;;;;;;;;;4994535;28;19926;-65
2023/07/30 04:36:03;;;;;;;;;;;;;;;;;;5010213;28;19926;-65
2023/07/30 04:38:29;;;;;;;;;;;;;;;;;;5003770;28;20275;-65
2023/07/30 04:40:55;;;;;;;;;;;;;;;;;;4985132;28;20909;-65
2023/07/30 04:43:21;;;;;;;;;;;;;;;;;;5001309;28;19937;-65
2023/07/30 04:45:47;;;;;;;;;;;;;;;;;;4995472;28;19964;-65
2023/07/30 04:48:13;;;;;;;;;;;;;;;;;;4998254;28;20460;-65
2023/07/30 04:50:41;;;;;;;;;;;;;;;;;;4991587;28;19921;-65
2023/07/30 04:53:07;;;;;;;;;;;;;;;;;;4990993;28;20012;-65
2023/07/30 04:55:33;;;;;;;;;;;;;;;;;;4990283;28;20061;-65
2023/07/30 04:57:59;;;;;;;;;;;;;;;;;;4994323;28;20337;-66
2023/07/30 05:00:25;;;;;;;;;;;;;;;;;;4971428;28;19922;-66
2023/07/30 05:02:51;;;;;;;;;;;;;;;;;;4991275;28;19932;-66
2023/07/30 05:05:17;;;;;;;;;;;;;;;;;;4991601;28;19933;-66
2023/07/30 05:07:43;;;;;;;;;;;;;;;;;;4990229;28;20026;-66
2023/07/30 05:10:10;;;;;;;;;;;;;;;;;;4991833;28;20450;-66
2023/07/30 05:12:36;;;;;;;;;;;;;;;;;;4984233;28;19922;-66
2023/07/30 05:15:02;;;;;;;;;;;;;;;;;;4986078;28;19933;-66
2023/07/30 05:17:28;;;;;;;;;;;;;;;;;;4993239;28;19926;-65
2023/07/30 05:19:54;;;;;;;;;;;;;;;;;;4995119;28;19922;-65
2023/07/30 05:22:20;;;;;;;;;;;;;;;;;;5008670;28;19956;-65
2023/07/30 05:24:46;;;;;;;;;;;;;;;;;;4999967;28;20390;-65
2023/07/30 05:27:11;;;;;;;;;;;;;;;;;;4997949;28;19929;-65
2023/07/30 05:29:37;;;;;;;;;;;;;;;;;;4993734;28;19949;-65
2023/07/30 05:32:03;;;;;;;;;;;;;;;;;;4999209;28;19922;-65
2023/07/30 05:34:29;;;;;;;;;;;;;;;;;;5001985;28;19957;-65
2023/07/30 05:36:55;;;;;;;;;;;;;;;;;;5006793;28;19980;-65
2023/07/30 05:39:21;;;;;;;;;;;;;;;;;;4994733;28;19964;-65
2023/07/30 05:41:47;;;;;;;;;;;;;;;;;;4994590;28;20364;-65
2023/07/30 05:44:13;;;;;;;;;;;;;;;;;;4994779;28;19972;-65
2023/07/30 05:46:39;;;;;;;;;;;;;;;;;;4993657;28;20293;-65
2023/07/30 05:49:05;;;;;;;;;;;;;;;;;;4976698;28;19992;-65
2023/07/30 05:51:30;;;;;;;;;;;;;;;;;;4994398;28;19922;-65
2023/07/30 05:53:56;;;;;;;;;;;;;;;;;;4960843;28;20008;-66
2023/07/30 05:56:22;;;;;;;;;;;;;;;;;;4976361;28;20604;-65
2023/07/30 05:58:48;;;;;;;;;;;;;;;;;;4994122;28;20295;-65
2023/07/30 06:01:14;;;;;;;;;;;;;;;;;;4992902;28;20005;-65
2023/07/30 06:03:40;;;;;;;;;;;;;;;;;;4976749;28;19948;-65
2023/07/30 06:06:06;;;;;;;;;;;;;;;;;;4994390;28;19929;-65
2023/07/30 06:08:32;;;;;;;;;;;;;;;;;;4994279;28;19929;-65
2023/07/30 06:10:58;;;;;;;;;;;;;;;;;;4994331;28;19969;-65
2023/07/30 06:13:24;;;;;;;;;;;;;;;;;;4992434;28;19995;-66
2023/07/30 06:15:49;;;;;;;;;;;;;;;;;;4994073;28;19926;-66
2023/07/30 06:18:15;;;;;;;;;;;;;;;;;;4993992;28;19925;-66
2023/07/30 06:20:41;;;;;;;;;;;;;;;;;;4994084;28;19929;-66
2023/07/30 06:23:07;;;;;;;;;;;;;;;;;;4994027;28;19984;-66
2023/07/30 06:25:33;;;;;;;;;;;;;;;;;;4993744;28;19928;-66
2023/07/30 06:27:59;;;;;;;;;;;;;;;;;;4985179;28;19934;-66
2023/07/30 06:30:25;;;;;;;;;;;;;;;;;;4992724;28;19921;-65
2023/07/30 06:32:51;;;;;;;;;;;;;;;;;;4992969;28;20008;-66
2023/07/30 06:35:17;;;;;;;;;;;;;;;;;;4993760;28;19928;-66
2023/07/30 06:37:42;;;;;;;;;;;;;;;;;;4993664;28;19929;-66
2023/07/30 06:40:08;;;;;;;;;;;;;;;;;;4993451;28;20399;-66
2023/07/30 06:42:34;;;;;;;;;;;;;;;;;;4993700;28;19922;-66
2023/07/30 06:45:00;;;;;;;;;;;;;;;;;;4992515;28;20852;-66
2023/07/30 06:47:26;;;;;;;;;;;;;;;;;;4991290;28;20000;-66
2023/07/30 06:49:52;;;;;;;;;;;;;;;;;;4995647;28;19922;-66
2023/07/30 06:52:19;;;;;;;;;;;;;;;;;;4997559;28;20415;-66
2023/07/30 06:54:44;;;;;;;;;;;;;;;;;;4993288;28;19952;-66
2023/07/30 06:57:11;;;;;;;;;;;;;;;;;;4991790;28;20350;-66
2023/07/30 06:59:37;;;;;;;;;;;;;;;;;;4992137;28;20357;-66
2023/07/30 07:02:05;;;;;;;;;;;;;;;;;;4984580;28;19925;-66
2023/07/30 07:04:30;;;;;;;;;;;;;;;;;;5006072;28;19944;-66
2023/07/30 07:06:56;;;;;;;;;;;;;;;;;;4995645;28;19929;-66
2023/07/30 07:09:22;;;;;;;;;;;;;;;;;;5004790;28;20651;-65
2023/07/30 07:11:48;;;;;;;;;;;;;;;;;;5004099;28;19928;-65
2023/07/30 07:14:14;;;;;;;;;;;;;;;;;;4992970;28;19922;-65
2023/07/30 07:16:40;;;;;;;;;;;;;;;;;;4999067;28;19948;-65
2023/07/30 07:19:06;;;;;;;;;;;;;;;;;;5006763;28;19928;-64
2023/07/30 07:21:32;;;;;;;;;;;;;;;;;;5010567;28;19925;-63
2023/07/30 07:23:58;;;;;;;;;;;;;;;;;;4993500;28;19937;-63
2023/07/30 07:26:24;;;;;;;;;;;;;;;;;;5005552;28;20477;-63
2023/07/30 07:28:50;;;;;;;;;;;;;;;;;;4990532;28;19929;-64
2023/07/30 07:31:16;;;;;;;;;;;;;;;;;;4998455;28;19967;-64
2023/07/30 07:33:42;;;;;;;;;;;;;;;;;;5001855;28;20307;-65
2023/07/30 07:36:08;;;;;;;;;;;;;;;;;;5002596;28;19922;-65
2023/07/30 07:38:34;;;;;;;;;;;;;;;;;;4998199;28;19926;-65
2023/07/30 07:40:59;;;;;;;;;;;;;;;;;;4988876;28;19972;-65
2023/07/30 07:43:26;;;;;;;;;;;;;;;;;;4995139;28;20359;-65
2023/07/30 07:45:52;;;;;;;;;;;;;;;;;;4997329;28;19930;-66
2023/07/30 07:48:18;;;;;;;;;;;;;;;;;;4999918;28;19925;-66
2023/07/30 07:50:44;;;;;;;;;;;;;;;;;;5004974;28;20618;-66
2023/07/30 07:53:10;;;;;;;;;;;;;;;;;;4998819;28;19933;-65
2023/07/30 07:55:36;;;;;;;;;;;;;;;;;;5000072;28;19921;-65
2023/07/30 07:58:02;;;;;;;;;;;;;;;;;;4989381;28;19965;-64
2023/07/30 08:00:28;;;;;;;;;;;;;;;;;;4999965;28;19975;-64
2023/07/30 08:02:54;;;;;;;;;;;;;;;;;;4992808;28;19926;-64
2023/07/30 08:05:20;;;;;;;;;;;;;;;;;;4972340;28;20295;-64
2023/07/30 08:07:46;;;;;;;;;;;;;;;;;;4991932;28;19926;-65
2023/07/30 08:10:11;;;;;;;;;;;;;;;;;;5003952;28;19925;-67
2023/07/30 08:12:37;;;;;;;;;;;;;;;;;;5007671;28;19955;-64
2023/07/30 08:15:03;;;;;;;;;;;;;;;;;;5000571;28;19922;-64
2023/07/30 08:17:29;;;;;;;;;;;;;;;;;;5008923;28;19928;-65
2023/07/30 08:19:55;;;;;;;;;;;;;;;;;;5011813;28;19925;-64
2023/07/30 08:22:21;;;;;;;;;;;;;;;;;;4990961;28;19922;-64
2023/07/30 08:24:47;;;;;;;;;;;;;;;;;;5000368;28;19936;-65
2023/07/30 08:27:13;;;;;;;;;;;;;;;;;;4980860;28;20008;-64
2023/07/30 08:29:39;;;;;;;;;;;;;;;;;;4991910;28;19932;-64
2023/07/30 08:32:05;;;;;;;;;;;;;;;;;;4988275;28;20588;-64
2023/07/30 08:34:31;;;;;;;;;;;;;;;;;;5007652;28;19953;-64
2023/07/30 08:36:56;;;;;;;;;;;;;;;;;;5002351;28;19922;-64
2023/07/30 08:39:22;;;;;;;;;;;;;;;;;;4997069;28;19930;-64
2023/07/30 08:41:48;;;;;;;;;;;;;;;;;;4987652;28;20408;-64
2023/07/30 08:44:14;;;;;;;;;;;;;;;;;;4996261;28;20256;-64
2023/07/30 08:46:40;;;;;;;;;;;;;;;;;;4992505;28;19980;-64
2023/07/30 08:49:06;;;;;;;;;;;;;;;;;;4993360;28;19926;-64
2023/07/30 08:51:32;;;;;;;;;;;;;;;;;;4994970;28;20291;-64
2023/07/30 08:53:58;;;;;;;;;;;;;;;;;;5005506;28;19968;-64
2023/07/30 08:56:24;;;;;;;;;;;;;;;;;;4998585;28;19926;-65
2023/07/30 08:58:51;;;;;;;;;;;;;;;;;;4991881;28;20340;-65
2023/07/30 09:01:16;;;;;;;;;;;;;;;;;;4986085;28;19925;-65
2023/07/30 09:03:42;;;;;;;;;;;;;;;;;;5011715;28;19947;-64
2023/07/30 09:06:08;;;;;;;;;;;;;;;;;;5007288;28;19929;-64
2023/07/30 09:08:34;;;;;;;;;;;;;;;;;;5014130;28;19932;-64
2023/07/30 09:11:00;;;;;;;;;;;;;;;;;;5007760;28;19922;-65
2023/07/30 09:13:26;;;;;;;;;;;;;;;;;;4995315;28;20014;-65
2023/07/30 09:15:52;;;;;;;;;;;;;;;;;;4998079;28;19995;-64
2023/07/30 09:18:20;;;;;;;;;;;;;;;;;;5007143;28;19922;-66
2023/07/30 09:20:46;;;;;;;;;;;;;;;;;;4994479;28;19933;-65
2023/07/30 09:23:12;;;;;;;;;;;;;;;;;;4994118;28;19948;-65
2023/07/30 09:25:38;;;;;;;;;;;;;;;;;;4998608;28;19937;-65
2023/07/30 09:28:04;;;;;;;;;;;;;;;;;;4991658;28;19925;-65
2023/07/30 09:30:30;;;;;;;;;;;;;;;;;;4994005;28;19922;-65
2023/07/30 09:32:56;;;;;;;;;;;;;;;;;;4994607;28;19928;-64
2023/07/30 09:35:24;;;;;;;;;;;;;;;;;;4986369;28;20347;-64
2023/07/30 09:37:50;;;;;;;;;;;;;;;;;;4995689;28;19926;-64
2023/07/30 09:40:18;;;;;;;;;;;;;;;;;;4993541;28;20025;-64
2023/07/30 09:42:44;;;;;;;;;;;;;;;;;;4993060;28;19926;-64
2023/07/30 09:45:09;;;;;;;;;;;;;;;;;;4978278;28;20012;-64
2023/07/30 09:47:36;;;;;;;;;;;;;;;;;;4998850;28;19929;-64
2023/07/30 09:50:02;;;;;;;;;;;;;;;;;;4994427;28;19992;-64
2023/07/30 09:52:27;;;;;;;;;;;;;;;;;;5000334;28;20372;-64
2023/07/30 09:54:53;;;;;;;;;;;;;;;;;;5010203;28;19969;-64
2023/07/30 09:57:19;;;;;;;;;;;;;;;;;;4994044;28;20283;-64
2023/07/30 09:59:45;;;;;;;;;;;;;;;;;;4990893;28;19984;-64
2023/07/30 10:02:11;;;;;;;;;;;;;;;;;;5006019;28;19925;-64
2023/07/30 10:04:37;;;;;;;;;;;;;;;;;;5006573;28;19972;-64
2023/07/30 10:07:03;;;;;;;;;;;;;;;;;;4991925;28;19926;-65
2023/07/30 10:09:29;;;;;;;;;;;;;;;;;;5007076;28;20448;-65
2023/07/30 10:11:55;;;;;;;;;;;;;;;;;;5007660;28;20012;-65
2023/07/30 10:14:21;;;;;;;;;;;;;;;;;;4980699;28;19929;-65
2023/07/30 10:16:47;;;;;;;;;;;;;;;;;;4999516;28;19963;-64
2023/07/30 10:19:13;;;;;;;;;;;;;;;;;;5005701;28;20449;-64
2023/07/30 10:21:39;;;;;;;;;;;;;;;;;;4999274;28;19949;-64
2023/07/30 10:24:04;;;;;;;;;;;;;;;;;;4997064;28;20355;-64
2023/07/30 10:26:30;;;;;;;;;;;;;;;;;;5004470;28;19940;-64
2023/07/30 10:28:56;;;;;;;;;;;;;;;;;;5004483;28;19953;-64
2023/07/30 10:31:22;;;;;;;;;;;;;;;;;;4996529;28;19929;-64
2023/07/30 10:33:48;;;;;;;;;;;;;;;;;;4992880;28;19989;-64
2023/07/30 10:36:14;;;;;;;;;;;;;;;;;;4996114;28;19929;-64
2023/07/30 10:38:41;;;;;;;;;;;;;;;;;;4988174;28;19926;-65
2023/07/30 10:41:11;;;;;;;;;;;;;;;;;;5002102;28;19937;-65
2023/07/30 10:43:37;;;;;;;;;;;;;;;;;;4997953;28;19926;-65
2023/07/30 10:46:03;;;;;;;;;;;;;;;;;;4994421;28;20646;-65
2023/07/30 10:48:29;;;;;;;;;;;;;;;;;;4989272;28;19974;-65
2023/07/30 10:50:54;;;;;;;;;;;;;;;;;;5009224;28;19967;-65
2023/07/30 10:53:20;;;;;;;;;;;;;;;;;;5033573;23;19929;-62
2023/07/30 10:55:46;;;;;;;;;;;;;;;;;;5011015;28;19925;-62
2023/07/30 10:58:12;;;;;;;;;;;;;;;;;;5015567;28;20030;-62
2023/07/30 11:00:38;;;;;;;;;;;;;;;;;;4994193;28;19921;-62
2023/07/30 11:03:04;;;;;;;;;;;;;;;;;;5018934;28;20358;-62
2023/07/30 11:05:31;;;;;;;;;;;;;;;;;;5012896;28;21293;-62
2023/07/30 11:07:57;;;;;;;;;;;;;;;;;;5010658;28;20024;-62
2023/07/30 11:10:23;;;;;;;;;;;;;;;;;;5013576;28;19921;-62
2023/07/30 11:12:49;;;;;;;;;;;;;;;;;;5007335;28;19925;-62
2023/07/30 11:15:15;;;;;;;;;;;;;;;;;;5011725;28;20039;-62
2023/07/30 11:17:41;;;;;;;;;;;;;;;;;;5020239;28;20112;-62
2023/07/30 11:20:08;;;;;;;;;;;;;;;;;;5027553;28;19921;-61
2023/07/30 11:22:34;;;;;;;;;;;;;;;;;;5012454;28;19925;-62
2023/07/30 11:25:01;;;;;;;;;;;;;;;;;;4989663;28;19929;-62
2023/07/30 11:27:27;;;;;;;;;;;;;;;;;;5005076;28;19976;-62
2023/07/30 11:29:53;;;;;;;;;;;;;;;;;;5020414;28;19929;-62
2023/07/30 11:32:19;;;;;;;;;;;;;;;;;;5016485;28;20443;-62
2023/07/30 11:34:45;;;;;;;;;;;;;;;;;;5016717;28;19921;-62
2023/07/30 11:37:11;;;;;;;;;;;;;;;;;;5003780;28;20399;-62
2023/07/30 11:39:37;;;;;;;;;;;;;;;;;;5007649;28;19936;-62
2023/07/30 11:42:03;;;;;;;;;;;;;;;;;;5001242;28;19933;-62
2023/07/30 11:44:29;;;;;;;;;;;;;;;;;;5010479;28;19926;-62
2023/07/30 11:46:54;;;;;;;;;;;;;;;;;;5017590;28;20011;-61
2023/07/30 11:49:21;;;;;;;;;;;;;;;;;;5030072;28;19925;-62
2023/07/30 11:51:48;;;;;;;;;;;;;;;;;;5024347;28;21234;-62
2023/07/30 11:54:14;;;;;;;;;;;;;;;;;;5007691;28;19929;-61
2023/07/30 11:56:40;;;;;;;;;;;;;;;;;;5004194;28;19937;-62
2023/07/30 11:59:06;;;;;;;;;;;;;;;;;;5021109;28;19937;-62
2023/07/30 12:01:34;;;;;;;;;;;;;;;;;;5011968;28;19922;-62
2023/07/30 12:04:00;;;;;;;;;;;;;;;;;;5014267;28;20624;-62
2023/07/30 12:06:26;;;;;;;;;;;;;;;;;;5031112;28;20019;-62
2023/07/30 12:08:52;;;;;;;;;;;;;;;;;;5010330;28;19949;-62
2023/07/30 12:11:18;;;;;;;;;;;;;;;;;;5020441;28;19921;-62
2023/07/30 12:13:45;;;;;;;;;;;;;;;;;;4993604;28;20434;-62
2023/07/30 12:16:11;;;;;;;;;;;;;;;;;;4993967;28;19928;-61
2023/07/30 12:18:37;;;;;;;;;;;;;;;;;;4992826;28;19952;-62
2023/07/30 12:21:06;;;;;;;;;;;;;;;;;;4993854;28;20000;-62
2023/07/30 12:23:32;;;;;;;;;;;;;;;;;;4995758;28;20438;-62
2023/07/30 12:25:58;;;;;;;;;;;;;;;;;;5022261;28;19971;-62
2023/07/30 12:28:24;;;;;;;;;;;;;;;;;;5027543;28;19932;-62
2023/07/30 12:30:50;;;;;;;;;;;;;;;;;;5019875;28;19928;-62
2023/07/30 12:33:16;;;;;;;;;;;;;;;;;;4995137;28;19921;-62
2023/07/30 12:35:42;;;;;;;;;;;;;;;;;;5019181;28;19929;-62
2023/07/30 12:38:08;;;;;;;;;;;;;;;;;;5017107;28;19928;-61
2023/07/30 12:40:34;;;;;;;;;;;;;;;;;;5030198;28;19988;-62
2023/07/30 12:43:00;;;;;;;;;;;;;;;;;;5015015;28;19922;-62
2023/07/30 12:45:26;;;;;;;;;;;;;;;;;;4997727;28;19929;-62
2023/07/30 12:47:52;;;;;;;;;;;;;;;;;;5014921;28;19967;-63
2023/07/30 12:50:18;;;;;;;;;;;;;;;;;;4996739;28;20655;-63
2023/07/30 12:52:44;;;;;;;;;;;;;;;;;;5013571;28;20028;-62
2023/07/30 12:55:10;;;;;;;;;;;;;;;;;;5017693;28;19929;-63
2023/07/30 12:57:36;;;;;;;;;;;;;;;;;;5032959;28;19921;-63
2023/07/30 13:00:02;;;;;;;;;;;;;;;;;;5028800;28;19921;-63
2023/07/30 13:02:28;;;;;;;;;;;;;;;;;;4997633;28;20016;-63
2023/07/30 13:04:53;;;;;;;;;;;;;;;;;;5000909;28;20007;-63
2023/07/30 13:07:19;;;;;;;;;;;;;;;;;;5007555;28;19921;-63
2023/07/30 13:09:45;;;;;;;;;;;;;;;;;;5029376;28;19936;-62
2023/07/30 13:12:11;;;;;;;;;;;;;;;;;;5016385;28;20322;-63
2023/07/30 13:14:37;;;;;;;;;;;;;;;;;;5026390;28;20151;-63
2023/07/30 13:17:03;;;;;;;;;;;;;;;;;;5031873;28;19929;-63
2023/07/30 13:19:31;;;;;;;;;;;;;;;;;;5028333;28;19925;-63
2023/07/30 13:21:57;;;;;;;;;;;;;;;;;;5023138;28;20003;-63
2023/07/30 13:24:23;;;;;;;;;;;;;;;;;;5034630;28;20023;-63
2023/07/30 13:26:48;;;;;;;;;;;;;;;;;;5021611;28;19932;-63
2023/07/30 13:29:14;;;;;;;;;;;;;;;;;;5015733;28;20387;-63
2023/07/30 13:31:40;;;;;;;;;;;;;;;;;;5007568;28;19921;-63
2023/07/30 13:34:06;;;;;;;;;;;;;;;;;;4997595;28;19928;-63
2023/07/30 13:36:32;;;;;;;;;;;;;;;;;;4994285;28;19940;-63
2023/07/30 13:38:58;;;;;;;;;;;;;;;;;;5013247;28;19921;-63
2023/07/30 13:41:24;;;;;;;;;;;;;;;;;;5018210;28;20032;-63
2023/07/30 13:43:50;;;;;;;;;;;;;;;;;;5012168;28;19925;-63
2023/07/30 13:46:16;;;;;;;;;;;;;;;;;;5010039;28;19929;-63
2023/07/30 13:48:42;;;;;;;;;;;;;;;;;;5031409;28;19928;-63
2023/07/30 13:51:08;;;;;;;;;;;;;;;;;;5021775;28;20325;-62
2023/07/30 13:53:38;;;;;;;;;;;;;;;;;;5030598;28;19972;-63
2023/07/30 13:56:04;;;;;;;;;;;;;;;;;;5007098;28;19922;-63
2023/07/30 13:58:30;;;;;;;;;;;;;;;;;;4995492;28;20252;-63
2023/07/30 14:00:55;;;;;;;;;;;;;;;;;;5016051;28;19925;-63
2023/07/30 14:03:21;;;;;;;;;;;;;;;;;;5011067;28;19922;-63
2023/07/30 14:05:47;;;;;;;;;;;;;;;;;;5006572;28;19954;-63
2023/07/30 14:08:13;;;;;;;;;;;;;;;;;;5023909;28;20299;-62
2023/07/30 14:10:39;;;;;;;;;;;;;;;;;;4996577;28;19932;-65
2023/07/30 14:13:05;;;;;;;;;;;;;;;;;;5025365;28;19928;-65
2023/07/30 14:15:31;;;;;;;;;;;;;;;;;;5009494;28;19922;-65
2023/07/30 14:17:57;;;;;;;;;;;;;;;;;;5018518;28;19921;-66
2023/07/30 14:20:23;;;;;;;;;;;;;;;;;;5013785;28;19929;-65
2023/07/30 14:22:49;;;;;;;;;;;;;;;;;;4995579;28;20436;-66
2023/07/30 14:25:15;;;;;;;;;;;;;;;;;;5029513;28;20020;-65
2023/07/30 14:27:41;;;;;;;;;;;;;;;;;;5019896;28;20024;-66
2023/07/30 14:30:07;;;;;;;;;;;;;;;;;;5010572;28;19929;-66
2023/07/30 14:32:33;;;;;;;;;;;;;;;;;;5014890;28;19983;-66
2023/07/30 14:34:59;;;;;;;;;;;;;;;;;;5003769;28;20314;-65
2023/07/30 14:37:25;;;;;;;;;;;;;;;;;;5005598;28;19921;-66
2023/07/30 14:39:50;;;;;;;;;;;;;;;;;;5011467;28;19971;-66
2023/07/30 14:42:16;;;;;;;;;;;;;;;;;;5018621;28;19925;-65
2023/07/30 14:44:42;;;;;;;;;;;;;;;;;;5022611;28;20319;-66
2023/07/30 14:47:09;;;;;;;;;;;;;;;;;;4999027;28;19932;-66
2023/07/30 14:49:37;;;;;;;;;;;;;;;;;;5015491;28;19948;-66
2023/07/30 14:52:03;;;;;;;;;;;;;;;;;;4990476;28;19933;-66
2023/07/30 14:54:29;;;;;;;;;;;;;;;;;;5014376;28;19921;-65
2023/07/30 14:56:55;;;;;;;;;;;;;;;;;;4981259;28;20299;-66
2023/07/30 14:59:21;;;;;;;;;;;;;;;;;;5022498;28;19979;-64
2023/07/30 15:01:47;;;;;;;;;;;;;;;;;;5015511;28;19929;-65
2023/07/30 15:04:12;;;;;;;;;;;;;;;;;;5010537;28;19921;-65
2023/07/30 15:06:39;;;;;;;;;;;;;;;;;;5013722;28;19925;-65
2023/07/30 15:09:05;;;;;;;;;;;;;;;;;;4998397;28;20329;-65
2023/07/30 15:11:31;;;;;;;;;;;;;;;;;;4996568;28;19951;-64
2023/07/30 15:13:57;;;;;;;;;;;;;;;;;;5018402;28;20602;-65
2023/07/30 15:16:23;;;;;;;;;;;;;;;;;;5011043;28;19929;-64
2023/07/30 15:18:49;;;;;;;;;;;;;;;;;;5019608;28;19928;-64
2023/07/30 15:21:15;;;;;;;;;;;;;;;;;;4994401;28;19933;-65
2023/07/30 15:23:40;;;;;;;;;;;;;;;;;;5012038;28;20366;-65
2023/07/30 15:26:06;;;;;;;;;;;;;;;;;;4995691;28;19968;-65
2023/07/30 15:28:32;;;;;;;;;;;;;;;;;;5024751;28;20742;-65
2023/07/30 15:30:58;;;;;;;;;;;;;;;;;;5013593;28;20406;-65
2023/07/30 15:33:24;;;;;;;;;;;;;;;;;;5018160;28;19925;-63
2023/07/30 15:35:50;;;;;;;;;;;;;;;;;;5010844;28;20026;-63
2023/07/30 15:38:16;;;;;;;;;;;;;;;;;;5011929;28;19922;-63
2023/07/30 15:40:42;;;;;;;;;;;;;;;;;;5022352;28;19929;-63
2023/07/30 15:43:08;;;;;;;;;;;;;;;;;;5020325;28;19933;-63
2023/07/30 15:45:40;;;;;;;;;;;;;;;;;;5013693;28;19933;-63
2023/07/30 15:48:06;;;;;;;;;;;;;;;;;;5023556;28;20358;-63
2023/07/30 15:50:32;;;;;;;;;;;;;;;;;;5028508;28;19921;-64
2023/07/30 15:52:57;;;;;;;;;;;;;;;;;;5015032;28;19929;-63
2023/07/30 15:55:23;;;;;;;;;;;;;;;;;;5016989;28;20397;-63
2023/07/30 15:57:49;;;;;;;;;;;;;;;;;;5029090;28;19925;-63
2023/07/30 16:00:15;;;;;;;;;;;;;;;;;;5016782;28;19925;-63
2023/07/30 16:02:43;;;;;;;;;;;;;;;;;;5017697;28;19931;-63
2023/07/30 16:05:09;;;;;;;;;;;;;;;;;;5007664;28;19936;-63
2023/07/30 16:07:36;;;;;;;;;;;;;;;;;;5017434;28;20268;-63
2023/07/30 16:10:02;;;;;;;;;;;;;;;;;;5019749;28;19925;-63
2023/07/30 16:12:28;;;;;;;;;;;;;;;;;;5014806;28;19925;-63
2023/07/30 16:14:54;;;;;;;;;;;;;;;;;;5009202;28;19921;-63
2023/07/30 16:17:20;;;;;;;;;;;;;;;;;;5007272;28;19921;-63
2023/07/30 16:19:46;;;;;;;;;;;;;;;;;;5029544;28;19921;-63
2023/07/30 16:22:12;;;;;;;;;;;;;;;;;;5008472;28;19929;-63
2023/07/30 16:24:38;;;;;;;;;;;;;;;;;;5018737;28;20399;-63
2023/07/30 16:27:03;;;;;;;;;;;;;;;;;;5011295;28;19928;-63
2023/07/30 16:29:29;;;;;;;;;;;;;;;;;;5001076;28;19975;-63
2023/07/30 16:31:55;;;;;;;;;;;;;;;;;;5022220;28;19951;-63
2023/07/30 16:34:21;;;;;;;;;;;;;;;;;;5022109;28;19949;-63
2023/07/30 16:36:47;;;;;;;;;;;;;;;;;;5010439;28;19922;-63